Time;durP1;ratioP1;P1;durP2;ratioP2;P2;SDS_P1;SDS_P2;PMS_P1;PMS_P2;Temp;Humidity;BMP_temperature;BMP_pressure;BME280_temperature;BME280_humidity;BME280_pressure;Samples;Min_cycle;Max_cycle;Signal;HPM_P1;HPM_P2
2023/03/30 00:00:19;;;;;;;12.23;2.10;;;;;;;;;;5058970;28;20056;-42
2023/03/30 00:02:48;;;;;;;8.13;2.60;;;;;;;;;;5059533;28;20033;-46
2023/03/30 00:05:14;;;;;;;9.30;2.30;;;;;;;;;;5056422;28;20067;-45
2023/03/30 00:07:44;;;;;;;7.53;2.35;;;;;;;;;;5060484;28;20029;-42
2023/03/30 00:10:18;;;;;;;6.43;2.03;;;;;;;;;;5057613;28;20037;-43
2023/03/30 00:12:46;;;;;;;9.20;2.00;;;;;;;;;;5059696;28;20064;-49
2023/03/30 00:15:12;;;;;;;6.78;2.00;;;;;;;;;;5069316;28;20472;-48
2023/03/30 00:17:38;;;;;;;7.80;2.30;;;;;;;;;;5058031;28;20472;-48
2023/03/30 00:20:09;;;;;;;8.45;2.20;;;;;;;;;;5055262;28;20081;-44
2023/03/30 00:22:34;;;;;;;7.55;2.15;;;;;;;;;;5059541;28;20025;-44
2023/03/30 00:25:00;;;;;;;8.73;2.40;;;;;;;;;;5060320;28;20090;-46
2023/03/30 00:27:25;;;;;;;11.15;1.85;;;;;;;;;;5059172;28;20478;-42
2023/03/30 00:29:51;;;;;;;8.88;1.92;;;;;;;;;;5061189;28;21383;-48
2023/03/30 00:32:16;;;;;;;11.57;2.13;;;;;;;;;;5059573;28;20068;-47
2023/03/30 00:34:42;;;;;;;6.45;2.17;;;;;;;;;;5061484;28;20153;-42
2023/03/30 00:37:08;;;;;;;7.20;1.98;;;;;;;;;;5054706;28;20052;-45
2023/03/30 00:39:33;;;;;;;10.65;2.75;;;;;;;;;;5054859;28;20024;-47
2023/03/30 00:41:59;;;;;;;8.52;2.58;;;;;;;;;;5059967;28;20043;-43
2023/03/30 00:44:58;;;;;;;12.35;2.20;;;;;;;;;;5058960;28;20063;-46
2023/03/30 00:47:25;;;;;;;7.45;1.98;;;;;;;;;;5057120;28;20037;-42
2023/03/30 00:49:50;;;;;;;5.47;1.55;;;;;;;;;;5052605;28;20433;-50
2023/03/30 00:52:18;;;;;;;9.65;2.38;;;;;;;;;;5061171;28;20045;-48
2023/03/30 00:54:45;;;;;;;7.15;1.60;;;;;;;;;;5060701;28;20028;-47
2023/03/30 00:57:12;;;;;;;7.88;2.30;;;;;;;;;;5061901;28;20121;-41
2023/03/30 00:59:37;;;;;;;5.80;1.90;;;;;;;;;;5056743;28;20493;-45
2023/03/30 01:02:03;;;;;;;7.22;2.00;;;;;;;;;;5053993;28;20136;-48
2023/03/30 01:04:29;;;;;;;6.60;1.80;;;;;;;;;;5056624;28;20096;-44
2023/03/30 01:06:56;;;;;;;5.30;1.80;;;;;;;;;;5058698;28;20396;-44
2023/03/30 01:09:23;;;;;;;7.60;2.00;;;;;;;;;;5064993;28;20040;-45
2023/03/30 01:11:49;;;;;;;7.85;1.63;;;;;;;;;;5062553;28;20508;-43
2023/03/30 01:14:15;;;;;;;7.95;2.05;;;;;;;;;;5063631;28;20049;-44
2023/03/30 01:16:41;;;;;;;11.20;2.85;;;;;;;;;;5060459;28;20090;-41
2023/03/30 01:19:28;;;;;;;6.32;2.05;;;;;;;;;;5062274;28;20439;-48
2023/03/30 01:22:15;;;;;;;9.75;2.42;;;;;;;;;;5059917;28;20045;-48
2023/03/30 01:24:57;;;;;;;9.95;2.50;;;;;;;;;;5059582;28;20151;-45
2023/03/30 01:27:48;;;;;;;11.07;2.30;;;;;;;;;;5058937;28;20112;-48
2023/03/30 01:30:30;;;;;;;5.70;2.42;;;;;;;;;;5022487;28;20040;-45
2023/03/30 01:33:20;;;;;;;8.30;2.42;;;;;;;;;;5018332;28;20127;-52
2023/03/30 01:36:13;;;;;;;11.80;2.75;;;;;;;;;;5017877;28;20209;-51
2023/03/30 01:39:11;;;;;;;9.35;1.80;;;;;;;;;;5017741;28;20060;-49
2023/03/30 01:41:47;;;;;;;6.95;2.15;;;;;;;;;;5019264;28;20183;-48
2023/03/30 01:44:18;;;;;;;7.90;2.20;;;;;;;;;;5021771;28;20030;-46
2023/03/30 01:46:49;;;;;;;9.98;2.25;;;;;;;;;;5020720;28;20601;-51
2023/03/30 01:49:19;;;;;;;7.75;2.10;;;;;;;;;;5021848;28;20033;-45
2023/03/30 01:51:53;;;;;;;7.97;2.25;;;;;;;;;;5020649;28;20038;-45
2023/03/30 01:54:24;;;;;;;7.70;2.35;;;;;;;;;;5018521;28;20045;-53
2023/03/30 01:56:55;;;;;;;11.20;2.25;;;;;;;;;;5017192;28;20041;-47
2023/03/30 01:59:45;;;;;;;8.25;2.13;;;;;;;;;;5019157;28;20087;-48
2023/03/30 02:02:14;;;;;;;9.68;2.38;;;;;;;;;;5019122;28;20046;-48
2023/03/30 02:04:41;;;;;;;8.73;2.00;;;;;;;;;;5024018;28;20030;-47
2023/03/30 02:07:13;;;;;;;7.18;2.45;;;;;;;;;;5038619;28;20071;-49
2023/03/30 02:09:40;;;;;;;13.10;2.80;;;;;;;;;;5059155;28;20032;-48
2023/03/30 02:12:08;;;;;;;8.38;2.00;;;;;;;;;;5058439;28;20947;-49
2023/03/30 02:14:37;;;;;;;8.32;2.10;;;;;;;;;;5058891;28;20064;-43
2023/03/30 02:17:07;;;;;;;11.85;2.70;;;;;;;;;;5062921;28;20029;-42
2023/03/30 02:19:32;;;;;;;10.75;2.10;;;;;;;;;;5061572;28;20424;-42
2023/03/30 02:22:00;;;;;;;9.02;2.53;;;;;;;;;;5064457;28;20044;-42
2023/03/30 02:24:27;;;;;;;7.47;2.38;;;;;;;;;;5059351;28;20101;-42
2023/03/30 02:26:54;;;;;;;7.68;2.45;;;;;;;;;;5061631;28;20064;-41
2023/03/30 02:29:21;;;;;;;10.98;2.33;;;;;;;;;;5056098;28;20025;-42
2023/03/30 02:31:49;;;;;;;12.35;3.25;;;;;;;;;;5055548;28;20037;-42
2023/03/30 02:34:26;;;;;;;5.93;2.22;;;;;;;;;;5061139;28;20122;-44
2023/03/30 02:36:59;;;;;;;11.95;2.70;;;;;;;;;;5060925;28;20041;-43
2023/03/30 02:39:43;;;;;;;9.77;2.42;;;;;;;;;;5061386;28;20032;-45
2023/03/30 02:42:38;;;;;;;8.50;2.65;;;;;;;;;;5046069;28;20104;-43
2023/03/30 02:45:22;;;;;;;5.95;2.13;;;;;;;;;;5048996;28;20036;-43
2023/03/30 02:48:13;;;;;;;9.02;2.65;;;;;;;;;;5046416;28;20025;-45
2023/03/30 02:50:42;;;;;;;10.30;2.50;;;;;;;;;;5040236;28;20112;-42
2023/03/30 02:53:39;;;;;;;7.00;2.20;;;;;;;;;;5047693;28;20029;-43
2023/03/30 02:56:12;;;;;;;8.57;2.10;;;;;;;;;;5052438;28;20048;-42
2023/03/30 02:58:54;;;;;;;6.28;2.38;;;;;;;;;;5060781;28;20525;-42
2023/03/30 03:01:31;;;;;;;6.75;2.05;;;;;;;;;;5059688;28;20083;-42
2023/03/30 03:03:58;;;;;;;9.32;2.38;;;;;;;;;;5061077;28;20070;-42
2023/03/30 03:06:25;;;;;;;11.98;3.22;;;;;;;;;;5055056;28;20033;-45
2023/03/30 03:08:53;;;;;;;6.40;2.00;;;;;;;;;;5058772;28;20384;-42
2023/03/30 03:11:19;;;;;;;15.00;2.40;;;;;;;;;;5057596;28;20040;-42
2023/03/30 03:13:44;;;;;;;9.93;3.03;;;;;;;;;;5058638;28;20040;-41
2023/03/30 03:16:11;;;;;;;9.18;3.13;;;;;;;;;;5059231;28;20131;-42
2023/03/30 03:18:46;;;;;;;10.40;2.45;;;;;;;;;;5061499;28;20028;-43
2023/03/30 03:21:12;;;;;;;10.20;3.03;;;;;;;;;;5061468;28;20071;-45
2023/03/30 03:23:39;;;;;;;12.57;2.97;;;;;;;;;;5061457;28;20085;-42
2023/03/30 03:26:05;;;;;;;14.77;2.90;;;;;;;;;;5055710;28;20037;-42
2023/03/30 03:28:31;;;;;;;12.90;2.92;;;;;;;;;;5057170;28;20032;-43
2023/03/30 03:30:58;;;;;;;9.80;2.92;;;;;;;;;;5059282;28;20033;-42
2023/03/30 03:33:25;;;;;;;10.75;2.63;;;;;;;;;;5064034;28;20580;-43
2023/03/30 03:35:52;;;;;;;6.22;2.38;;;;;;;;;;5057690;28;20033;-46
2023/03/30 03:38:21;;;;;;;11.15;2.85;;;;;;;;;;5055344;28;20477;-45
2023/03/30 03:40:51;;;;;;;6.90;2.80;;;;;;;;;;5058949;28;20037;-42
2023/03/30 03:43:17;;;;;;;6.45;2.30;;;;;;;;;;5063079;28;20028;-43
2023/03/30 03:45:45;;;;;;;3.60;2.05;;;;;;;;;;5059368;28;20045;-42
2023/03/30 03:48:11;;;;;;;9.98;2.28;;;;;;;;;;5060756;28;20477;-42
2023/03/30 03:50:37;;;;;;;9.93;2.70;;;;;;;;;;5056297;28;20043;-43
2023/03/30 03:53:02;;;;;;;14.95;2.80;;;;;;;;;;5060821;28;20031;-45
2023/03/30 03:55:28;;;;;;;9.85;2.47;;;;;;;;;;5060469;28;22277;-45
2023/03/30 03:57:54;;;;;;;9.30;2.90;;;;;;;;;;5059960;28;20036;-42
2023/03/30 04:00:21;;;;;;;9.20;2.13;;;;;;;;;;5054258;28;20037;-43
2023/03/30 04:02:46;;;;;;;8.23;2.53;;;;;;;;;;5056767;28;20108;-44
2023/03/30 04:05:12;;;;;;;9.20;2.28;;;;;;;;;;5058736;28;20112;-42
2023/03/30 04:07:37;;;;;;;6.97;2.28;;;;;;;;;;5060175;28;20036;-42
2023/03/30 04:10:05;;;;;;;9.02;2.30;;;;;;;;;;5056191;28;20433;-42
2023/03/30 04:12:30;;;;;;;9.52;2.53;;;;;;;;;;5060016;28;20493;-44
2023/03/30 04:14:56;;;;;;;12.38;2.42;;;;;;;;;;5060478;28;20036;-42
2023/03/30 04:17:22;;;;;;;5.80;2.17;;;;;;;;;;5058339;28;20523;-42
2023/03/30 04:19:52;;;;;;;7.70;2.22;;;;;;;;;;5058250;28;20046;-43
2023/03/30 04:22:18;;;;;;;9.52;2.55;;;;;;;;;;5060147;28;20037;-41
2023/03/30 04:24:44;;;;;;;7.05;2.40;;;;;;;;;;5061117;28;20033;-42
2023/03/30 04:27:13;;;;;;;7.55;2.38;;;;;;;;;;5063033;28;20068;-45
2023/03/30 04:29:39;;;;;;;8.02;2.58;;;;;;;;;;5055488;28;20021;-42
2023/03/30 04:32:05;;;;;;;7.40;2.60;;;;;;;;;;5060188;28;20087;-43
2023/03/30 04:34:31;;;;;;;9.75;2.65;;;;;;;;;;5058160;28;20029;-43
2023/03/30 04:36:57;;;;;;;11.40;2.60;;;;;;;;;;5059158;28;20684;-42
2023/03/30 04:39:22;;;;;;;9.55;2.35;;;;;;;;;;5058498;28;20044;-43
2023/03/30 04:41:50;;;;;;;8.93;2.92;;;;;;;;;;5055424;28;20040;-41
2023/03/30 04:44:19;;;;;;;9.82;2.78;;;;;;;;;;5056558;28;20484;-42
2023/03/30 04:46:44;;;;;;;14.45;3.08;;;;;;;;;;5062610;28;20502;-43
2023/03/30 04:49:10;;;;;;;10.95;2.28;;;;;;;;;;5063967;28;20033;-45
2023/03/30 04:51:36;;;;;;;8.75;2.35;;;;;;;;;;5058294;28;20070;-45
2023/03/30 04:54:02;;;;;;;5.38;2.47;;;;;;;;;;5063663;28;20033;-43
2023/03/30 04:56:28;;;;;;;8.82;2.88;;;;;;;;;;5064770;28;20029;-42
2023/03/30 04:58:53;;;;;;;7.30;2.20;;;;;;;;;;5062969;28;20048;-41
2023/03/30 05:01:19;;;;;;;5.95;2.58;;;;;;;;;;5059019;28;20044;-44
2023/03/30 05:03:44;;;;;;;12.85;3.00;;;;;;;;;;5060404;28;20121;-41
2023/03/30 05:06:11;;;;;;;10.10;2.55;;;;;;;;;;5060055;28;20162;-43
2023/03/30 05:08:37;;;;;;;6.85;2.30;;;;;;;;;;5056748;28;20513;-42
2023/03/30 05:11:03;;;;;;;11.70;2.63;;;;;;;;;;5056744;28;20052;-43
2023/03/30 05:13:29;;;;;;;13.27;3.30;;;;;;;;;;5061480;28;20045;-41
2023/03/30 05:15:56;;;;;;;10.10;2.80;;;;;;;;;;5063443;28;20044;-45
2023/03/30 05:18:21;;;;;;;6.85;2.67;;;;;;;;;;5056486;28;20031;-41
2023/03/30 05:20:47;;;;;;;13.82;3.35;;;;;;;;;;5058020;28;20032;-42
2023/03/30 05:23:13;;;;;;;8.63;2.65;;;;;;;;;;5057678;28;20032;-42
2023/03/30 05:25:44;;;;;;;10.10;2.35;;;;;;;;;;5055703;28;20086;-42
2023/03/30 05:28:09;;;;;;;16.45;3.33;;;;;;;;;;5041465;28;20021;-45
2023/03/30 05:30:35;;;;;;;13.15;2.60;;;;;;;;;;5040805;28;20051;-43
2023/03/30 05:33:00;;;;;;;9.80;2.53;;;;;;;;;;5044308;28;20028;-42
2023/03/30 05:35:26;;;;;;;8.45;2.40;;;;;;;;;;5046927;28;20037;-40
2023/03/30 05:37:53;;;;;;;17.05;2.60;;;;;;;;;;5054985;28;20055;-42
2023/03/30 05:40:18;;;;;;;7.85;2.60;;;;;;;;;;5055457;28;20125;-44
2023/03/30 05:42:44;;;;;;;9.35;3.15;;;;;;;;;;5060700;28;20378;-40
2023/03/30 05:45:10;;;;;;;10.57;2.85;;;;;;;;;;5062870;28;20016;-40
2023/03/30 05:47:35;;;;;;;11.77;3.50;;;;;;;;;;5045549;28;20055;-43
2023/03/30 05:50:01;;;;;;;14.70;4.32;;;;;;;;;;5044616;28;20024;-41
2023/03/30 05:52:26;;;;;;;14.20;4.10;;;;;;;;;;5048680;28;20025;-40
2023/03/30 05:54:52;;;;;;;11.27;4.85;;;;;;;;;;5049192;28;20033;-41
2023/03/30 05:57:17;;;;;;;12.40;4.00;;;;;;;;;;5045563;28;20033;-41
2023/03/30 05:59:43;;;;;;;6.50;3.72;;;;;;;;;;5049311;28;20068;-44
2023/03/30 06:02:11;;;;;;;11.80;3.47;;;;;;;;;;5047039;28;20069;-42
2023/03/30 06:04:37;;;;;;;9.32;3.78;;;;;;;;;;5046424;28;20029;-43
2023/03/30 06:07:03;;;;;;;12.65;4.30;;;;;;;;;;5043283;28;20127;-43
2023/03/30 06:09:28;;;;;;;7.97;3.50;;;;;;;;;;5045029;28;20101;-48
2023/03/30 06:11:54;;;;;;;19.40;3.72;;;;;;;;;;5044865;28;20041;-46
2023/03/30 06:14:19;;;;;;;9.02;2.75;;;;;;;;;;5046612;28;20123;-44
2023/03/30 06:16:45;;;;;;;9.85;3.72;;;;;;;;;;5056719;28;20037;-42
2023/03/30 06:19:11;;;;;;;10.50;3.40;;;;;;;;;;5060844;28;20036;-41
2023/03/30 06:21:36;;;;;;;9.63;3.15;;;;;;;;;;5054566;28;20055;-43
2023/03/30 06:24:02;;;;;;;16.50;3.60;;;;;;;;;;5058559;28;20032;-43
2023/03/30 06:26:28;;;;;;;7.45;3.10;;;;;;;;;;5054790;28;20041;-44
2023/03/30 06:28:53;;;;;;;9.25;3.30;;;;;;;;;;5051711;28;20044;-44
2023/03/30 06:31:19;;;;;;;8.60;3.00;;;;;;;;;;5053118;28;20086;-48
2023/03/30 06:33:44;;;;;;;15.07;3.72;;;;;;;;;;5063142;28;20643;-46
2023/03/30 06:36:11;;;;;;;11.13;3.55;;;;;;;;;;5051327;28;20056;-47
2023/03/30 06:38:37;;;;;;;14.50;3.35;;;;;;;;;;5045244;28;20362;-45
2023/03/30 06:41:07;;;;;;;11.10;3.17;;;;;;;;;;5043489;28;20044;-44
2023/03/30 06:43:33;;;;;;;9.10;2.90;;;;;;;;;;5043990;28;20048;-48
2023/03/30 06:45:58;;;;;;;10.10;3.35;;;;;;;;;;5042014;28;20045;-43
2023/03/30 06:48:24;;;;;;;9.52;2.70;;;;;;;;;;5042835;28;20164;-43
2023/03/30 06:50:51;;;;;;;9.32;3.53;;;;;;;;;;5051452;28;20116;-48
2023/03/30 06:53:17;;;;;;;10.77;2.70;;;;;;;;;;5065588;28;20029;-46
2023/03/30 06:55:42;;;;;;;11.43;3.03;;;;;;;;;;5062842;28;20045;-45
2023/03/30 06:58:08;;;;;;;14.07;3.03;;;;;;;;;;5063317;28;20351;-44
2023/03/30 07:00:34;;;;;;;12.68;3.05;;;;;;;;;;5057021;28;20044;-41
2023/03/30 07:02:59;;;;;;;14.63;3.28;;;;;;;;;;5059297;28;20045;-41
2023/03/30 07:05:27;;;;;;;11.55;2.53;;;;;;;;;;5062553;28;20073;-41
2023/03/30 07:07:53;;;;;;;7.05;2.53;;;;;;;;;;5058424;28;20090;-47
2023/03/30 07:10:19;;;;;;;13.90;2.95;;;;;;;;;;5060983;28;20051;-43
2023/03/30 07:12:45;;;;;;;5.30;2.30;;;;;;;;;;5060464;28;20044;-45
2023/03/30 07:15:11;;;;;;;8.02;2.90;;;;;;;;;;5054592;28;20029;-42
2023/03/30 07:17:36;;;;;;;6.55;2.70;;;;;;;;;;5051964;28;20044;-41
2023/03/30 07:20:04;;;;;;;11.23;2.55;;;;;;;;;;5049765;28;20465;-42
2023/03/30 07:22:30;;;;;;;7.78;2.60;;;;;;;;;;5056914;28;20025;-41
2023/03/30 07:24:55;;;;;;;7.50;2.03;;;;;;;;;;5050767;28;20052;-41
2023/03/30 07:27:23;;;;;;;9.10;2.40;;;;;;;;;;5053911;28;20083;-46
2023/03/30 07:29:52;;;;;;;9.35;2.38;;;;;;;;;;5058173;28;20048;-43
2023/03/30 07:32:18;;;;;;;9.02;2.90;;;;;;;;;;5052019;28;20042;-45
2023/03/30 07:34:43;;;;;;;11.23;2.17;;;;;;;;;;5039202;28;20059;-43
2023/03/30 07:37:09;;;;;;;20.75;3.10;;;;;;;;;;5057982;28;20159;-41
2023/03/30 07:39:35;;;;;;;23.55;4.30;;;;;;;;;;5057041;28;20488;-41
2023/03/30 07:42:01;;;;;;;23.67;8.35;;;;;;;;;;5058093;28;20045;-43
2023/03/30 07:44:28;;;;;;;6.95;2.10;;;;;;;;;;5060399;28;20036;-42
2023/03/30 07:46:54;;;;;;;5.20;2.05;;;;;;;;;;5046489;28;20086;-46
2023/03/30 07:49:20;;;;;;;14.10;2.45;;;;;;;;;;5043298;28;20025;-43
2023/03/30 07:51:46;;;;;;;10.60;2.63;;;;;;;;;;5045904;28;20063;-42
2023/03/30 07:54:11;;;;;;;6.47;2.10;;;;;;;;;;5039820;28;20021;-43
2023/03/30 07:56:38;;;;;;;9.27;2.60;;;;;;;;;;5046074;28;20069;-41
2023/03/30 07:59:04;;;;;;;7.93;2.10;;;;;;;;;;5044812;28;20045;-44
2023/03/30 08:01:31;;;;;;;8.77;2.13;;;;;;;;;;5058950;28;20041;-45
2023/03/30 08:03:57;;;;;;;7.25;2.42;;;;;;;;;;5039243;28;20025;-41
2023/03/30 08:06:22;;;;;;;3.60;1.92;;;;;;;;;;5042751;28;20458;-43
2023/03/30 08:08:48;;;;;;;8.93;2.65;;;;;;;;;;5041725;28;20080;-42
2023/03/30 08:11:15;;;;;;;9.75;2.30;;;;;;;;;;5045473;28;20047;-45
2023/03/30 08:13:40;;;;;;;7.85;2.40;;;;;;;;;;5042920;28;20060;-47
2023/03/30 08:16:07;;;;;;;16.60;2.60;;;;;;;;;;5042364;28;20068;-45
2023/03/30 08:18:33;;;;;;;8.55;2.50;;;;;;;;;;5045004;28;20068;-41
2023/03/30 08:20:59;;;;;;;5.63;1.90;;;;;;;;;;5037407;28;20826;-44
2023/03/30 08:23:24;;;;;;;6.10;2.13;;;;;;;;;;5045018;28;20025;-41
2023/03/30 08:25:51;;;;;;;7.03;2.00;;;;;;;;;;5039621;28;20068;-41
2023/03/30 08:28:20;;;;;;;8.90;1.90;;;;;;;;;;5040767;28;20036;-41
2023/03/30 08:30:46;;;;;;;8.23;1.83;;;;;;;;;;5042614;28;20094;-41
2023/03/30 08:33:12;;;;;;;10.43;2.58;;;;;;;;;;5038058;28;20024;-41
2023/03/30 08:35:38;;;;;;;12.25;2.78;;;;;;;;;;5029242;28;20457;-43
2023/03/30 08:38:03;;;;;;;10.18;2.75;;;;;;;;;;5039852;28;20033;-42
2023/03/30 08:40:29;;;;;;;18.15;3.38;;;;;;;;;;5039068;28;20049;-41
2023/03/30 08:43:32;;;;;;;6.47;1.92;;;;;;;;;;5040009;28;20029;-41
2023/03/30 08:46:02;;;;;;;7.60;2.33;;;;;;;;;;5045293;28;20532;-41
2023/03/30 08:48:36;;;;;;;9.75;2.28;;;;;;;;;;5039673;28;20085;-41
2023/03/30 08:51:14;;;;;;;5.45;2.25;;;;;;;;;;5036251;28;20034;-43
2023/03/30 08:53:40;;;;;;;5.88;1.88;;;;;;;;;;5040974;28;20397;-41
2023/03/30 08:56:16;;;;;;;6.45;2.10;;;;;;;;;;5040345;28;20070;-42
2023/03/30 08:58:54;;;;;;;17.75;2.22;;;;;;;;;;5040086;28;20048;-41
2023/03/30 09:01:27;;;;;;;8.20;3.17;;;;;;;;;;5038122;28;20049;-42
2023/03/30 09:04:16;;;;;;;14.90;3.80;;;;;;;;;;5044286;28;20390;-43
2023/03/30 09:06:53;;;;;;;12.38;2.05;;;;;;;;;;5033345;28;20037;-41
2023/03/30 09:09:22;;;;;;;9.85;2.08;;;;;;;;;;5040030;28;20070;-41
2023/03/30 09:11:52;;;;;;;8.73;2.65;;;;;;;;;;5041414;28;20029;-40
2023/03/30 09:14:41;;;;;;;9.82;4.45;;;;;;;;;;5039283;28;20056;-41
2023/03/30 09:17:22;;;;;;;6.25;2.17;;;;;;;;;;5038973;28;20045;-43
2023/03/30 09:19:56;;;;;;;5.03;1.65;;;;;;;;;;5037387;28;20037;-43
2023/03/30 09:22:31;;;;;;;10.38;2.28;;;;;;;;;;5035265;28;20175;-44
2023/03/30 09:24:58;;;;;;;15.00;1.88;;;;;;;;;;5037618;28;20556;-47
2023/03/30 09:27:44;;;;;;;8.65;1.75;;;;;;;;;;5040175;28;20080;-41
2023/03/30 09:30:21;;;;;;;9.38;2.33;;;;;;;;;;5041958;28;20436;-42
2023/03/30 09:33:05;;;;;;;8.93;1.75;;;;;;;;;;5043010;28;20035;-41
2023/03/30 09:35:39;;;;;;;9.05;4.10;;;;;;;;;;5046282;28;20163;-42
2023/03/30 09:38:09;;;;;;;8.93;2.50;;;;;;;;;;5040094;28;20037;-42
2023/03/30 09:40:34;;;;;;;4.40;1.60;;;;;;;;;;5044521;28;20052;-42
2023/03/30 09:43:18;;;;;;;9.73;2.03;;;;;;;;;;5044420;28;20033;-41
2023/03/30 09:45:44;;;;;;;7.15;1.90;;;;;;;;;;5043066;28;20515;-42
2023/03/30 09:48:10;;;;;;;11.10;1.92;;;;;;;;;;5042155;28;20025;-41
2023/03/30 09:50:41;;;;;;;6.75;1.50;;;;;;;;;;5045675;28;20729;-41
2023/03/30 09:53:28;;;;;;;10.48;2.08;;;;;;;;;;5058018;28;20436;-41
2023/03/30 09:56:05;;;;;;;10.60;2.10;;;;;;;;;;5039698;28;20056;-41
2023/03/30 09:58:33;;;;;;;6.03;1.85;;;;;;;;;;5047297;28;20048;-41
2023/03/30 10:01:07;;;;;;;7.07;1.60;;;;;;;;;;5045075;28;20121;-41
2023/03/30 10:03:34;;;;;;;4.90;1.60;;;;;;;;;;5044855;28;20478;-41
2023/03/30 10:06:03;;;;;;;7.85;1.95;;;;;;;;;;5039806;28;20485;-41
2023/03/30 10:08:28;;;;;;;5.53;1.63;;;;;;;;;;5041130;28;20486;-41
2023/03/30 10:10:56;;;;;;;7.55;1.92;;;;;;;;;;5042368;28;20037;-41
2023/03/30 10:13:34;;;;;;;6.45;1.98;;;;;;;;;;5046053;28;20063;-41
2023/03/30 10:16:05;;;;;;;6.55;2.08;;;;;;;;;;5042725;28;20034;-42
2023/03/30 10:18:41;;;;;;;8.00;1.75;;;;;;;;;;5041351;28;20727;-44
2023/03/30 10:21:17;;;;;;;10.27;1.90;;;;;;;;;;5043528;28;20730;-40
2023/03/30 10:23:46;;;;;;;4.57;1.90;;;;;;;;;;5055757;28;20037;-42
2023/03/30 10:26:20;;;;;;;5.45;1.65;;;;;;;;;;5041723;28;20044;-43
2023/03/30 10:28:52;;;;;;;5.50;1.73;;;;;;;;;;5044947;28;20028;-41
2023/03/30 10:31:19;;;;;;;6.35;2.33;;;;;;;;;;5043621;28;20482;-42
2023/03/30 10:33:44;;;;;;;3.40;1.30;;;;;;;;;;5047153;28;20044;-41
2023/03/30 10:36:13;;;;;;;9.10;2.78;;;;;;;;;;5041176;28;20481;-42
2023/03/30 10:38:40;;;;;;;6.93;1.80;;;;;;;;;;5044108;28;20565;-41
2023/03/30 10:41:10;;;;;;;4.88;1.90;;;;;;;;;;5041349;28;20071;-43
2023/03/30 10:43:37;;;;;;;5.72;1.77;;;;;;;;;;5038421;28;20448;-41
2023/03/30 10:46:12;;;;;;;5.97;2.35;;;;;;;;;;5046010;28;20037;-42
2023/03/30 10:48:38;;;;;;;7.20;2.03;;;;;;;;;;5036485;28;20060;-43
2023/03/30 10:51:46;;;;;;;8.77;2.00;;;;;;;;;;5042685;28;20064;-41
2023/03/30 10:54:32;;;;;;;9.05;2.13;;;;;;;;;;5012871;28;20038;-46
2023/03/30 10:57:08;;;;;;;7.57;1.70;;;;;;;;;;5026231;28;20037;-42
2023/03/30 10:59:57;;;;;;;9.73;2.17;;;;;;;;;;5025920;28;20056;-41
2023/03/30 11:02:47;;;;;;;7.90;1.90;;;;;;;;;;5025032;28;20069;-41
2023/03/30 11:05:23;;;;;;;8.27;2.25;;;;;;;;;;5028434;28;20059;-46
2023/03/30 11:07:59;;;;;;;6.65;2.00;;;;;;;;;;5031689;28;20025;-41
2023/03/30 11:10:30;;;;;;;10.63;2.45;;;;;;;;;;5027909;28;20056;-46
2023/03/30 11:13:18;;;;;;;7.80;1.95;;;;;;;;;;5028789;28;20057;-42
2023/03/30 11:16:08;;;;;;;10.43;3.35;;;;;;;;;;5023326;28;20041;-42
2023/03/30 11:18:47;;;;;;;16.08;2.92;;;;;;;;;;5025119;28;20041;-43
2023/03/30 11:21:20;;;;;;;13.98;2.67;;;;;;;;;;5023316;28;20072;-41
2023/03/30 11:23:55;;;;;;;9.75;2.70;;;;;;;;;;5028350;28;20076;-44
2023/03/30 11:26:37;;;;;;;10.43;2.15;;;;;;;;;;5028657;28;20037;-44
2023/03/30 11:29:47;;;;;;;18.50;3.35;;;;;;;;;;5033524;28;20083;-46
2023/03/30 11:32:34;;;;;;;11.07;3.20;;;;;;;;;;5043066;28;20044;-41
2023/03/30 11:35:35;;;;;;;12.57;2.67;;;;;;;;;;5043790;28;20086;-41
2023/03/30 11:38:20;;;;;;;10.07;2.53;;;;;;;;;;5060360;28;20713;-40
2023/03/30 11:41:12;;;;;;;8.38;2.17;;;;;;;;;;5053637;28;20045;-42
2023/03/30 11:43:37;;;;;;;13.05;2.40;;;;;;;;;;5041461;28;20029;-43
2023/03/30 11:46:06;;;;;;;7.35;2.33;;;;;;;;;;5049005;28;21454;-41
2023/03/30 11:48:53;;;;;;;8.10;2.00;;;;;;;;;;5061592;28;20070;-41
2023/03/30 11:51:30;;;;;;;9.32;2.40;;;;;;;;;;5050604;28;20502;-40
2023/03/30 11:54:27;;;;;;;9.77;2.15;;;;;;;;;;5039846;28;20504;-41
2023/03/30 11:57:09;;;;;;;11.48;2.50;;;;;;;;;;5043746;28;20059;-42
2023/03/30 12:00:07;;;;;;;9.57;2.63;;;;;;;;;;5041365;28;20483;-40
2023/03/30 12:02:45;;;;;;;6.18;2.05;;;;;;;;;;5061379;28;20060;-41
2023/03/30 12:05:24;;;;;;;11.88;2.25;;;;;;;;;;5060858;28;20024;-40
2023/03/30 12:07:52;;;;;;;7.43;2.53;;;;;;;;;;5062814;28;20029;-42
2023/03/30 12:10:32;;;;;;;9.27;2.15;;;;;;;;;;5059106;28;20112;-41
2023/03/30 12:12:59;;;;;;;14.40;2.58;;;;;;;;;;5064792;28;20119;-42
2023/03/30 12:15:27;;;;;;;15.65;2.30;;;;;;;;;;5068909;28;20056;-40
2023/03/30 12:18:16;;;;;;;7.88;2.60;;;;;;;;;;5038286;28;20036;-41
2023/03/30 12:20:53;;;;;;;13.70;2.70;;;;;;;;;;5038334;28;20046;-41
2023/03/30 12:23:30;;;;;;;9.63;2.90;;;;;;;;;;5043208;28;20036;-40
2023/03/30 12:25:58;;;;;;;15.05;2.00;;;;;;;;;;5042192;28;20470;-41
2023/03/30 12:28:25;;;;;;;8.63;2.08;;;;;;;;;;5045400;28;20061;-40
2023/03/30 12:30:56;;;;;;;10.85;2.63;;;;;;;;;;5051495;28;20111;-40
2023/03/30 12:33:27;;;;;;;7.55;2.17;;;;;;;;;;5060205;28;20025;-41
2023/03/30 12:35:57;;;;;;;8.90;2.50;;;;;;;;;;5059209;28;20078;-41
2023/03/30 12:38:36;;;;;;;10.25;2.33;;;;;;;;;;5057108;28;20079;-40
2023/03/30 12:41:12;;;;;;;8.30;2.10;;;;;;;;;;5062483;28;20036;-41
2023/03/30 12:43:56;;;;;;;11.13;2.30;;;;;;;;;;5061892;28;20032;-40
2023/03/30 12:46:40;;;;;;;6.93;2.38;;;;;;;;;;5056482;28;20378;-40
2023/03/30 12:49:37;;;;;;;10.85;2.70;;;;;;;;;;5061118;28;20033;-42
2023/03/30 12:52:13;;;;;;;9.82;2.83;;;;;;;;;;5059605;28;20082;-41
2023/03/30 12:54:55;;;;;;;9.07;2.22;;;;;;;;;;5058726;28;20029;-41
2023/03/30 12:57:36;;;;;;;10.10;2.65;;;;;;;;;;5061922;28;20468;-41
2023/03/30 13:00:10;;;;;;;5.95;2.22;;;;;;;;;;5062134;28;20040;-44
2023/03/30 13:03:11;;;;;;;14.77;2.60;;;;;;;;;;5040969;28;20030;-41
2023/03/30 13:05:42;;;;;;;6.57;2.08;;;;;;;;;;5047467;28;20045;-41
2023/03/30 13:08:49;;;;;;;8.93;2.22;;;;;;;;;;5050254;28;20680;-40
2023/03/30 13:11:17;;;;;;;8.23;1.98;;;;;;;;;;5041214;28;20037;-41
2023/03/30 13:13:48;;;;;;;7.18;2.40;;;;;;;;;;5049681;28;20048;-40
2023/03/30 13:16:13;;;;;;;7.95;2.13;;;;;;;;;;5047965;28;20075;-40
2023/03/30 13:19:12;;;;;;;10.73;2.47;;;;;;;;;;5047894;28;20025;-41
2023/03/30 13:21:56;;;;;;;10.63;2.30;;;;;;;;;;5047304;28;20500;-40
2023/03/30 13:24:30;;;;;;;11.20;2.40;;;;;;;;;;5047975;28;20027;-41
2023/03/30 13:27:17;;;;;;;11.38;2.35;;;;;;;;;;5046034;28;20049;-41
2023/03/30 13:30:02;;;;;;;8.15;1.98;;;;;;;;;;5048229;28;20056;-43
2023/03/30 13:32:46;;;;;;;6.35;1.80;;;;;;;;;;5038391;28;20073;-40
2023/03/30 13:35:29;;;;;;;8.18;2.25;;;;;;;;;;5046258;28;20025;-43
2023/03/30 13:38:04;;;;;;;15.68;2.40;;;;;;;;;;5046402;28;20371;-42
2023/03/30 13:40:32;;;;;;;6.80;2.33;;;;;;;;;;5045309;28;20098;-42
2023/03/30 13:43:10;;;;;;;8.68;2.30;;;;;;;;;;5048672;28;20032;-42
2023/03/30 13:45:41;;;;;;;14.55;2.50;;;;;;;;;;5043072;28;20087;-43
2023/03/30 13:48:28;;;;;;;9.15;1.95;;;;;;;;;;5044347;28;20810;-42
2023/03/30 13:50:56;;;;;;;8.57;2.53;;;;;;;;;;5047676;28;20506;-41
2023/03/30 13:53:26;;;;;;;9.93;2.65;;;;;;;;;;5047478;28;20021;-41
2023/03/30 13:55:51;;;;;;;9.93;2.20;;;;;;;;;;5047062;28;20112;-42
2023/03/30 13:58:24;;;;;;;8.93;2.45;;;;;;;;;;5048865;28;20108;-41
2023/03/30 14:00:53;;;;;;;8.98;2.13;;;;;;;;;;5049863;28;20045;-41
2023/03/30 14:03:44;;;;;;;10.73;2.40;;;;;;;;;;5063193;28;20020;-41
2023/03/30 14:06:13;;;;;;;11.40;1.98;;;;;;;;;;5057155;28;20050;-41
2023/03/30 14:08:41;;;;;;;8.65;2.35;;;;;;;;;;5058664;28;20032;-42
2023/03/30 14:11:13;;;;;;;16.90;2.25;;;;;;;;;;5065821;28;20048;-42
2023/03/30 14:13:39;;;;;;;9.50;2.30;;;;;;;;;;5063556;28;20044;-44
2023/03/30 14:16:05;;;;;;;10.02;2.35;;;;;;;;;;5058275;28;20041;-43
2023/03/30 14:18:31;;;;;;;11.60;2.17;;;;;;;;;;5048467;28;20473;-45
2023/03/30 14:20:59;;;;;;;10.70;2.22;;;;;;;;;;5043478;28;20131;-46
2023/03/30 14:23:30;;;;;;;7.57;2.40;;;;;;;;;;5044889;28;20048;-47
2023/03/30 14:26:13;;;;;;;11.90;2.35;;;;;;;;;;5043636;28;20120;-47
2023/03/30 14:28:41;;;;;;;11.13;2.45;;;;;;;;;;5046974;28;20398;-45
2023/03/30 14:31:19;;;;;;;20.10;2.55;;;;;;;;;;5047151;28;20040;-43
2023/03/30 14:33:45;;;;;;;8.93;2.50;;;;;;;;;;5044953;28;20029;-42
2023/03/30 14:36:15;;;;;;;14.40;2.28;;;;;;;;;;5041917;28;20383;-42
2023/03/30 14:38:43;;;;;;;10.88;2.65;;;;;;;;;;5042688;28;20036;-42
2023/03/30 14:41:12;;;;;;;12.95;2.40;;;;;;;;;;5047327;28;20037;-43
2023/03/30 14:43:39;;;;;;;9.75;2.75;;;;;;;;;;5044279;28;20466;-41
2023/03/30 14:46:08;;;;;;;10.48;2.35;;;;;;;;;;5045886;28;20354;-42
2023/03/30 14:48:40;;;;;;;16.75;2.78;;;;;;;;;;5045161;28;20559;-41
2023/03/30 14:51:27;;;;;;;13.57;3.17;;;;;;;;;;5042687;28;23544;-45
2023/03/30 14:53:53;;;;;;;11.45;2.80;;;;;;;;;;5041098;28;20043;-42
2023/03/30 14:56:21;;;;;;;12.00;2.63;;;;;;;;;;5045124;28;20041;-42
2023/03/30 14:58:50;;;;;;;9.13;2.42;;;;;;;;;;5044653;28;20029;-41
2023/03/30 15:01:19;;;;;;;13.73;3.45;;;;;;;;;;5042323;28;20037;-41
2023/03/30 15:03:46;;;;;;;12.85;2.55;;;;;;;;;;5042932;28;20033;-41